createdAt,value
2023-01-17T00:02:24.053Z,49.47
2023-01-17T00:04:52.345Z,47.85
2023-01-17T00:07:22.904Z,47.00
2023-01-17T00:09:51.058Z,52.65
2023-01-17T00:12:20.958Z,54.97
2023-01-17T00:14:49.470Z,52.85
2023-01-17T00:17:17.826Z,55.08
2023-01-17T00:19:46.061Z,51.25
2023-01-17T00:22:29.367Z,46.83
2023-01-17T00:24:57.606Z,45.15
2023-01-17T00:27:25.921Z,39.35
2023-01-17T00:29:54.128Z,44.72
2023-01-17T00:32:22.286Z,59.65
2023-01-17T00:34:50.620Z,59.83
2023-01-17T00:37:18.717Z,65.80
2023-01-17T00:39:47.043Z,63.33
2023-01-17T00:42:15.421Z,66.50
2023-01-17T00:44:44.196Z,65.85
2023-01-17T00:47:12.441Z,66.10
2023-01-17T00:49:40.771Z,64.53
2023-01-17T00:52:08.927Z,66.10
2023-01-17T00:54:37.303Z,70.00
2023-01-17T00:57:07.207Z,69.93
2023-01-17T00:59:35.588Z,67.32
2023-01-17T01:02:04.249Z,66.53
2023-01-17T01:04:32.649Z,66.35
2023-01-17T01:07:00.996Z,69.80
2023-01-17T01:09:29.225Z,66.93
2023-01-17T01:11:57.636Z,63.42
2023-01-17T01:14:25.833Z,64.00
2023-01-17T01:16:54.067Z,65.35
2023-01-17T01:19:22.310Z,59.05
2023-01-17T01:21:51.534Z,61.65
2023-01-17T01:24:19.823Z,61.63
2023-01-17T01:26:48.096Z,70.20
2023-01-17T01:29:16.255Z,69.30
2023-01-17T01:31:44.517Z,68.00
2023-01-17T01:34:12.967Z,68.50
2023-01-17T01:36:41.193Z,64.82
2023-01-17T01:39:09.370Z,65.43
2023-01-17T01:41:37.653Z,65.00
2023-01-17T01:44:26.085Z,61.05
2023-01-17T01:46:54.491Z,64.38
2023-01-17T01:49:26.172Z,68.95
2023-01-17T01:52:01.988Z,69.50
2023-01-17T01:55:00.749Z,68.68
2023-01-17T01:57:35.232Z,74.85
2023-01-17T02:00:08.355Z,67.00
2023-01-17T02:02:41.579Z,74.00
2023-01-17T02:05:11.610Z,73.47
2023-01-17T02:07:55.134Z,72.07
2023-01-17T02:10:23.358Z,72.85
2023-01-17T02:12:53.810Z,73.82
2023-01-17T02:15:26.662Z,71.05
2023-01-17T02:18:17.326Z,72.07
2023-01-17T02:21:03.788Z,70.97
2023-01-17T02:23:35.221Z,68.00
2023-01-17T02:26:25.386Z,64.97
2023-01-17T02:28:56.666Z,69.97
2023-01-17T02:31:34.441Z,70.80
2023-01-17T02:34:16.114Z,73.88
2023-01-17T02:36:52.433Z,73.00
2023-01-17T02:39:28.964Z,75.40
2023-01-17T02:42:03.424Z,73.97
2023-01-17T02:44:40.220Z,75.03
2023-01-17T02:47:28.253Z,78.13
2023-01-17T02:50:07.098Z,80.55
2023-01-17T02:53:05.528Z,101.63
2023-01-17T02:55:57.878Z,103.45
2023-01-17T02:58:50.279Z,90.03
2023-01-17T03:01:21.624Z,83.80
2023-01-17T03:04:00.438Z,83.47
2023-01-17T03:06:59.184Z,71.78
2023-01-17T03:09:28.729Z,70.50
2023-01-17T03:11:58.342Z,67.65
2023-01-17T03:14:26.772Z,64.05
2023-01-17T03:16:54.851Z,62.53
2023-01-17T03:19:23.134Z,58.03
2023-01-17T03:21:51.288Z,54.38
2023-01-17T03:24:19.521Z,61.50
2023-01-17T03:26:47.889Z,64.68
2023-01-17T03:29:16.961Z,62.22
2023-01-17T03:31:45.337Z,61.22
2023-01-17T03:34:14.263Z,56.30
2023-01-17T03:36:42.607Z,55.72
2023-01-17T03:39:10.687Z,51.92
2023-01-17T03:41:39.084Z,55.28
2023-01-17T03:44:07.229Z,51.42
2023-01-17T03:46:35.555Z,50.17
2023-01-17T03:49:03.901Z,46.15
2023-01-17T03:51:32.006Z,49.08
2023-01-17T03:54:00.240Z,46.70
2023-01-17T03:56:28.469Z,43.40
2023-01-17T03:58:56.967Z,46.03
2023-01-17T04:01:25.975Z,39.45
2023-01-17T04:03:54.217Z,40.80
2023-01-17T04:06:22.505Z,41.53
2023-01-17T04:08:50.644Z,42.08
2023-01-17T04:11:18.943Z,38.72
2023-01-17T04:13:47.179Z,44.30
2023-01-17T04:16:18.083Z,39.58
2023-01-17T04:18:46.536Z,43.78
2023-01-17T04:21:14.849Z,39.65
2023-01-17T04:23:43.089Z,39.92
2023-01-17T04:26:13.264Z,40.45
2023-01-17T04:28:41.538Z,41.33
2023-01-17T04:31:17.435Z,36.10
2023-01-17T04:33:45.815Z,37.40
2023-01-17T04:36:14.071Z,33.85
2023-01-17T04:38:42.263Z,32.72
2023-01-17T04:41:10.450Z,33.53
2023-01-17T04:43:38.690Z,35.30
2023-01-17T04:46:07.192Z,37.53
2023-01-17T04:48:35.366Z,36.92
2023-01-17T04:51:05.106Z,35.83
2023-01-17T04:53:33.495Z,37.92
2023-01-17T04:56:01.731Z,35.55
2023-01-17T04:58:30.355Z,33.72
2023-01-17T05:01:06.336Z,32.55
2023-01-17T05:03:35.477Z,33.55
2023-01-17T05:06:03.814Z,31.60
2023-01-17T05:08:31.994Z,31.77
2023-01-17T05:11:00.323Z,32.22
2023-01-17T05:13:28.535Z,32.83
2023-01-17T05:15:58.744Z,30.70
2023-01-17T05:18:27.009Z,32.28
2023-01-17T05:20:55.341Z,32.70
2023-01-17T05:23:23.559Z,33.25
2023-01-17T05:25:51.644Z,31.77
2023-01-17T05:28:20.097Z,32.30
2023-01-17T05:30:48.333Z,33.92
2023-01-17T05:33:16.535Z,33.72
2023-01-17T05:35:44.754Z,34.08
2023-01-17T05:38:12.924Z,36.80
2023-01-17T05:40:41.201Z,36.72
2023-01-17T05:43:09.710Z,35.42
2023-01-17T05:45:38.045Z,33.83
2023-01-17T05:48:06.576Z,34.90
2023-01-17T05:50:37.221Z,34.47
2023-01-17T05:53:12.275Z,36.10
2023-01-17T05:55:41.543Z,34.88
2023-01-17T05:58:18.290Z,32.50
2023-01-17T06:00:46.819Z,34.35
2023-01-17T06:03:15.442Z,36.97
2023-01-17T06:05:43.791Z,34.95
2023-01-17T06:08:12.231Z,34.25
2023-01-17T06:10:40.915Z,38.33
2023-01-17T06:13:12.338Z,35.03
2023-01-17T06:15:40.738Z,33.63
2023-01-17T06:18:13.858Z,35.75
2023-01-17T06:20:42.699Z,35.08
2023-01-17T06:23:15.251Z,36.53
2023-01-17T06:25:45.524Z,37.25
2023-01-17T06:28:16.255Z,35.75
2023-01-17T06:30:44.842Z,32.88
2023-01-17T06:33:14.415Z,33.28
2023-01-17T06:35:52.913Z,34.67
2023-01-17T06:38:21.525Z,33.15
2023-01-17T06:40:49.741Z,36.28
2023-01-17T06:43:18.082Z,38.60
2023-01-17T06:45:46.304Z,38.45
2023-01-17T06:48:14.709Z,34.65
2023-01-17T06:50:42.989Z,39.58
2023-01-17T06:53:11.256Z,37.50
2023-01-17T06:55:39.824Z,35.92
2023-01-17T06:58:09.274Z,37.65
2023-01-17T07:00:40.344Z,39.28
2023-01-17T07:03:24.215Z,36.78
2023-01-17T07:05:53.503Z,38.90
2023-01-17T07:08:21.832Z,43.60
2023-01-17T07:10:50.287Z,39.60
2023-01-17T07:13:18.442Z,39.17
2023-01-17T07:15:46.774Z,37.58
2023-01-17T07:18:15.174Z,39.08
2023-01-17T07:20:44.298Z,41.22
2023-01-17T07:23:12.803Z,38.75
2023-01-17T07:25:40.954Z,37.70
2023-01-17T07:28:09.450Z,37.33
2023-01-17T07:30:37.635Z,37.75
2023-01-17T07:33:05.856Z,36.40
2023-01-17T07:35:34.179Z,36.90
2023-01-17T07:38:02.503Z,39.83
2023-01-17T07:40:31.176Z,39.45
2023-01-17T07:43:04.366Z,37.75
2023-01-17T07:48:00.442Z,41.88
2023-01-17T07:50:28.656Z,42.80
2023-01-17T07:52:57.013Z,44.65
2023-01-17T07:55:25.307Z,43.72
2023-01-17T07:57:53.933Z,47.10
2023-01-17T08:00:22.695Z,54.25
2023-01-17T08:02:51.014Z,49.42
2023-01-17T08:05:19.259Z,46.05
2023-01-17T08:07:47.467Z,53.60
2023-01-17T08:10:15.939Z,43.00
2023-01-17T08:12:50.853Z,52.92
2023-01-17T08:15:19.834Z,55.40
2023-01-17T08:17:49.513Z,59.97
2023-01-17T08:20:18.023Z,51.90
2023-01-17T08:22:46.699Z,44.30
2023-01-17T08:25:14.995Z,44.38
2023-01-17T08:27:43.363Z,43.97
2023-01-17T08:30:12.001Z,44.42
2023-01-17T08:32:40.281Z,36.47
2023-01-17T08:35:09.692Z,36.60
2023-01-17T08:37:37.948Z,42.28
2023-01-17T08:40:07.617Z,44.42
2023-01-17T08:42:37.209Z,42.47
2023-01-17T08:45:07.845Z,38.10
2023-01-17T08:47:36.501Z,33.67
2023-01-17T08:50:07.114Z,33.83
2023-01-17T08:52:35.613Z,30.50
2023-01-17T08:55:04.758Z,28.85
2023-01-17T08:57:33.550Z,31.13
2023-01-17T09:00:01.863Z,31.75
2023-01-17T09:02:30.187Z,36.22
2023-01-17T09:04:58.275Z,30.15
2023-01-17T09:07:26.448Z,29.02
2023-01-17T09:09:54.844Z,27.02
2023-01-17T09:12:23.050Z,26.48
2023-01-17T09:14:51.405Z,26.08
2023-01-17T09:17:19.569Z,27.38
2023-01-17T09:19:50.538Z,30.00
2023-01-17T09:22:18.920Z,31.70
2023-01-17T09:24:47.052Z,31.35
2023-01-17T09:27:15.366Z,35.17
2023-01-17T09:29:43.545Z,26.02
2023-01-17T09:32:11.763Z,23.02
2023-01-17T09:34:40.155Z,27.40
2023-01-17T09:37:08.333Z,26.52
2023-01-17T09:39:36.637Z,25.73
2023-01-17T09:42:36.375Z,26.63
2023-01-17T09:45:05.464Z,26.38
2023-01-17T09:47:45.529Z,26.55
2023-01-17T09:50:32.372Z,28.00
2023-01-17T09:53:21.079Z,26.65
2023-01-17T09:56:15.224Z,28.38
2023-01-17T09:59:10.954Z,37.75
2023-01-17T10:01:46.725Z,30.20
2023-01-17T10:04:28.685Z,24.88
2023-01-17T10:07:23.116Z,26.00
2023-01-17T10:10:10.755Z,25.42
2023-01-17T10:12:56.872Z,26.08
2023-01-17T10:15:37.706Z,28.27
2023-01-17T10:18:30.738Z,26.50
2023-01-17T10:21:22.259Z,28.80
2023-01-17T10:24:11.702Z,27.42
2023-01-17T10:26:40.224Z,26.75
2023-01-17T10:29:15.686Z,26.98
2023-01-17T10:32:00.340Z,27.65
2023-01-17T10:34:40.661Z,26.08
2023-01-17T10:37:21.664Z,25.67
2023-01-17T10:39:51.300Z,25.45
2023-01-17T10:42:44.366Z,25.83
2023-01-17T10:45:23.112Z,25.02
2023-01-17T10:48:12.064Z,23.95
2023-01-17T10:51:07.294Z,23.45
2023-01-17T10:53:55.739Z,26.75
2023-01-17T10:56:29.007Z,25.63
2023-01-17T10:59:34.759Z,27.58
2023-01-17T11:02:03.374Z,22.73
2023-01-17T11:04:42.810Z,22.50
2023-01-17T11:07:20.055Z,23.13
2023-01-17T11:09:53.323Z,23.92
2023-01-17T11:12:28.405Z,22.02
2023-01-17T11:15:16.544Z,24.45
2023-01-17T11:17:50.792Z,22.92
2023-01-17T11:20:35.632Z,21.23
2023-01-17T11:23:13.321Z,21.50
2023-01-17T11:25:49.734Z,23.63
2023-01-17T11:28:28.711Z,21.65
2023-01-17T11:31:01.025Z,21.58
2023-01-17T11:33:40.206Z,21.10
2023-01-17T11:36:22.514Z,20.33
2023-01-17T11:39:02.512Z,20.40
2023-01-17T11:41:39.489Z,20.55
2023-01-17T11:44:30.595Z,24.42
2023-01-17T11:47:16.025Z,24.00
2023-01-17T11:49:46.743Z,21.65
2023-01-17T11:52:26.907Z,22.85
2023-01-17T11:54:56.413Z,20.60
2023-01-17T11:57:24.896Z,19.20
2023-01-17T12:00:02.295Z,24.23
2023-01-17T12:02:58.178Z,25.23
2023-01-17T12:06:07.976Z,25.33
2023-01-17T12:09:06.524Z,23.10
2023-01-17T12:12:05.223Z,20.80
2023-01-17T12:14:53.722Z,22.00
2023-01-17T12:17:50.758Z,23.05
2023-01-17T12:20:42.861Z,24.08
2023-01-17T12:23:22.910Z,26.15
2023-01-17T12:25:59.411Z,23.80
2023-01-17T12:28:45.446Z,20.92
2023-01-17T12:31:55.185Z,23.55
2023-01-17T12:34:33.394Z,25.23
2023-01-17T12:37:12.555Z,21.45
2023-01-17T12:39:46.428Z,22.80
2023-01-17T12:42:27.692Z,22.73
2023-01-17T12:45:45.205Z,23.07
2023-01-17T12:48:24.487Z,20.35
2023-01-17T12:51:04.809Z,23.67
2023-01-17T12:53:40.115Z,25.05
2023-01-17T12:56:23.983Z,22.13
2023-01-17T12:59:14.378Z,23.30
2023-01-17T13:01:46.819Z,24.65
2023-01-17T13:04:30.428Z,22.23
2023-01-17T13:07:20.519Z,25.17
2023-01-17T13:09:55.462Z,24.02
2023-01-17T13:12:25.706Z,23.13
2023-01-17T13:14:54.337Z,21.75
2023-01-17T13:17:38.273Z,23.25
2023-01-17T13:20:33.404Z,20.85
2023-01-17T13:23:33.974Z,23.13
2023-01-17T13:26:03.879Z,21.08
2023-01-17T13:28:49.799Z,21.88
2023-01-17T13:31:47.194Z,22.10
2023-01-17T13:34:28.438Z,23.33
2023-01-17T13:37:15.127Z,23.30
2023-01-17T13:40:05.765Z,22.58
2023-01-17T13:43:03.025Z,20.92
2023-01-17T13:45:34.811Z,22.67
2023-01-17T13:48:18.442Z,20.73
2023-01-17T13:50:55.146Z,21.52
2023-01-17T13:53:35.371Z,23.33
2023-01-17T13:56:26.852Z,24.10
2023-01-17T13:58:59.145Z,22.03
2023-01-17T14:01:33.538Z,27.13
2023-01-17T14:04:12.450Z,21.77
2023-01-17T14:07:17.337Z,20.88
2023-01-17T14:09:51.774Z,25.25
2023-01-17T14:12:19.944Z,22.38
2023-01-17T14:14:50.967Z,22.42
2023-01-17T14:17:19.113Z,20.97
2023-01-17T14:19:59.540Z,22.85
2023-01-17T14:22:37.216Z,21.88
2023-01-17T14:25:14.639Z,22.58
2023-01-17T14:27:53.235Z,22.20
2023-01-17T14:30:35.786Z,25.88
2023-01-17T14:33:03.940Z,23.17
2023-01-17T14:35:38.136Z,23.38
2023-01-17T14:38:24.067Z,21.83
2023-01-17T14:41:30.577Z,22.00
2023-01-17T14:43:59.279Z,23.50
2023-01-17T14:46:32.920Z,23.52
2023-01-17T14:49:04.586Z,22.17
2023-01-17T14:51:33.851Z,21.27
2023-01-17T14:54:03.954Z,20.92
2023-01-17T14:56:33.050Z,20.70
2023-01-17T14:59:13.255Z,29.75
2023-01-17T15:01:42.726Z,22.63
2023-01-17T15:04:28.428Z,20.67
2023-01-17T15:06:58.761Z,24.63
2023-01-17T15:09:35.192Z,24.67
2023-01-17T15:12:03.752Z,24.40
2023-01-17T15:14:38.694Z,33.90
2023-01-17T15:17:11.542Z,23.65
2023-01-17T15:19:51.944Z,22.15
2023-01-17T15:22:20.909Z,24.13
2023-01-17T15:24:50.434Z,23.17
2023-01-17T15:27:19.274Z,22.60
2023-01-17T15:29:48.486Z,89.85
2023-01-17T15:32:21.328Z,28.58
2023-01-17T15:34:51.497Z,25.92
2023-01-17T15:37:32.063Z,24.38
2023-01-17T15:40:20.995Z,21.38
2023-01-17T15:42:52.317Z,21.23
2023-01-17T15:45:38.370Z,140.57
2023-01-17T15:48:39.183Z,35.95
2023-01-17T15:51:13.954Z,25.58
2023-01-17T15:53:43.938Z,23.05
2023-01-17T15:56:28.620Z,26.27
2023-01-17T15:59:27.853Z,22.70
2023-01-17T16:01:57.688Z,25.60
2023-01-17T16:04:36.595Z,23.30
2023-01-17T16:07:35.075Z,25.88
2023-01-17T16:10:25.262Z,23.20
2023-01-17T16:12:54.673Z,21.75
2023-01-17T16:15:24.071Z,20.45
2023-01-17T16:17:56.258Z,25.45
2023-01-17T16:20:33.477Z,32.03
2023-01-17T16:23:02.025Z,23.52
2023-01-17T16:25:30.471Z,24.65
2023-01-17T16:27:59.408Z,23.55
2023-01-17T16:30:28.433Z,27.25
2023-01-17T16:32:56.783Z,26.70
2023-01-17T16:35:27.567Z,22.33
2023-01-17T16:37:59.930Z,21.67
2023-01-17T16:40:31.482Z,21.75
2023-01-17T16:43:01.015Z,25.00
2023-01-17T16:45:29.323Z,29.17
2023-01-17T16:47:57.577Z,21.42
2023-01-17T16:50:26.408Z,27.95
2023-01-17T16:52:55.623Z,26.05
2023-01-17T16:55:25.584Z,35.03
2023-01-17T16:57:57.413Z,23.67
2023-01-17T17:00:25.973Z,22.10
2023-01-17T17:02:54.926Z,33.78
2023-01-17T17:05:23.338Z,23.27
2023-01-17T17:07:51.903Z,20.90
2023-01-17T17:10:22.374Z,24.77
2023-01-17T17:12:50.760Z,26.02
2023-01-17T17:15:19.141Z,28.42
2023-01-17T17:17:47.296Z,23.63
2023-01-17T17:20:16.629Z,27.63
2023-01-17T17:22:50.175Z,32.03
2023-01-17T17:25:19.250Z,26.67
2023-01-17T17:27:47.647Z,24.88
2023-01-17T17:30:16.075Z,23.80
2023-01-17T17:32:49.534Z,23.08
2023-01-17T17:35:17.953Z,22.75
2023-01-17T17:37:46.321Z,28.45
2023-01-17T17:40:14.512Z,26.98
2023-01-17T17:42:43.830Z,23.00
2023-01-17T17:45:12.372Z,27.65
2023-01-17T17:47:40.545Z,26.30
2023-01-17T17:50:09.639Z,30.77
2023-01-17T17:52:37.823Z,23.70
2023-01-17T17:55:06.615Z,24.90
2023-01-17T17:57:34.979Z,25.92
2023-01-17T18:00:05.026Z,25.95
2023-01-17T18:02:34.521Z,28.30
2023-01-17T18:05:02.724Z,29.90
2023-01-17T18:07:34.380Z,27.45
2023-01-17T18:10:02.579Z,29.30
2023-01-17T18:12:30.834Z,28.85
2023-01-17T18:14:58.948Z,33.33
2023-01-17T18:17:27.164Z,35.55
2023-01-17T18:19:55.572Z,30.05
2023-01-17T18:22:23.791Z,30.42
2023-01-17T18:28:55.824Z,33.05
2023-01-17T18:31:25.114Z,27.92
2023-01-17T18:33:57.096Z,34.10
2023-01-17T18:38:55.946Z,36.05
2023-01-17T18:41:33.085Z,44.45
2023-01-17T18:44:05.399Z,35.75
2023-01-17T18:46:34.558Z,54.38
2023-01-17T18:49:03.621Z,56.53
2023-01-17T18:51:33.812Z,85.53
2023-01-17T18:54:02.817Z,78.85
2023-01-17T18:56:32.972Z,55.03
2023-01-17T18:59:01.759Z,40.50
2023-01-17T19:01:33.719Z,34.97
2023-01-17T19:04:05.270Z,38.70
2023-01-17T19:06:39.436Z,110.97
2023-01-17T19:09:09.413Z,54.42
2023-01-17T19:11:37.838Z,107.32
2023-01-17T19:14:07.419Z,51.50
2023-01-17T19:16:39.579Z,44.13
2023-01-17T19:19:11.753Z,117.57
2023-01-17T19:21:40.066Z,67.50
2023-01-17T19:24:08.894Z,148.82
2023-01-17T19:26:37.983Z,178.95
2023-01-17T19:29:06.306Z,67.35
2023-01-17T19:31:38.675Z,62.63
2023-01-17T19:34:06.944Z,113.25
2023-01-17T19:36:37.531Z,62.70
2023-01-17T19:39:07.969Z,90.93
2023-01-17T19:41:41.210Z,133.02
2023-01-17T19:44:10.894Z,146.32
2023-01-17T19:46:39.368Z,150.52
2023-01-17T19:49:09.590Z,84.80
2023-01-17T19:51:38.301Z,167.23
2023-01-17T19:54:06.536Z,154.10
2023-01-17T19:56:35.080Z,131.52
2023-01-17T19:59:03.591Z,315.13
2023-01-17T20:01:33.948Z,199.82
2023-01-17T20:04:03.525Z,127.15
2023-01-17T20:06:34.679Z,244.23
2023-01-17T20:09:03.995Z,141.27
2023-01-17T20:11:32.282Z,196.88
2023-01-17T20:14:01.026Z,263.13
2023-01-17T20:16:31.512Z,158.57
2023-01-17T20:19:00.843Z,148.50
2023-01-17T20:21:30.510Z,170.07
2023-01-17T20:24:00.444Z,157.23
2023-01-17T20:26:30.988Z,175.75
2023-01-17T20:28:59.505Z,202.98
2023-01-17T20:31:28.159Z,201.40
2023-01-17T20:33:57.191Z,198.63
2023-01-17T20:36:27.116Z,157.05
2023-01-17T20:38:55.740Z,138.10
2023-01-17T20:41:26.368Z,237.07
2023-01-17T20:43:56.815Z,149.52
2023-01-17T20:46:27.549Z,235.18
2023-01-17T20:48:57.896Z,170.30
2023-01-17T20:51:28.578Z,137.30
2023-01-17T20:53:59.719Z,98.95
2023-01-17T20:56:28.371Z,76.60
2023-01-17T20:58:56.943Z,65.50
2023-01-17T21:01:25.383Z,114.35
2023-01-17T21:03:54.173Z,91.90
2023-01-17T21:06:23.629Z,92.03
2023-01-17T21:08:52.730Z,132.60
2023-01-17T21:11:24.219Z,140.63
2023-01-17T21:13:52.864Z,182.68
2023-01-17T21:16:22.541Z,171.15
2023-01-17T21:18:52.036Z,225.00
2023-01-17T21:21:23.036Z,229.68
2023-01-17T21:23:54.319Z,227.27
2023-01-17T21:26:23.856Z,178.17
2023-01-17T21:28:53.099Z,145.25
2023-01-17T21:31:30.510Z,139.60
2023-01-17T21:34:00.208Z,200.90
2023-01-17T21:36:47.642Z,230.57
2023-01-17T21:39:19.418Z,246.45
2023-01-17T21:41:49.223Z,302.13
2023-01-17T21:44:23.037Z,248.05
2023-01-17T21:46:52.999Z,249.60
2023-01-17T21:49:23.578Z,299.30
2023-01-17T21:51:51.899Z,232.95
2023-01-17T21:54:25.260Z,187.30
2023-01-17T21:56:53.623Z,160.30
2023-01-17T21:59:21.767Z,99.65
2023-01-17T22:01:50.313Z,103.18
2023-01-17T22:04:19.147Z,91.50
2023-01-17T22:06:47.649Z,98.68
2023-01-17T22:09:15.959Z,82.68
2023-01-17T22:11:44.195Z,73.70
2023-01-17T22:14:12.550Z,57.22
2023-01-17T22:16:40.842Z,44.13
2023-01-17T22:19:09.199Z,41.00
2023-01-17T22:21:37.489Z,79.82
2023-01-17T22:24:06.319Z,103.80
2023-01-17T22:26:34.546Z,154.73
2023-01-17T22:29:03.192Z,144.18
2023-01-17T22:31:32.058Z,150.13
2023-01-17T22:34:03.146Z,78.35
2023-01-17T22:36:35.354Z,74.30
2023-01-17T22:39:03.812Z,103.05
2023-01-17T22:41:32.307Z,96.68
2023-01-17T22:44:02.195Z,128.18
2023-01-17T22:46:32.941Z,126.18
2023-01-17T22:49:01.170Z,70.40
2023-01-17T22:51:29.548Z,57.83
2023-01-17T22:53:59.930Z,43.78
2023-01-17T22:56:33.622Z,42.25
2023-01-17T22:59:02.412Z,98.10
2023-01-17T23:01:32.736Z,63.13
2023-01-17T23:04:04.363Z,52.17
2023-01-17T23:06:34.992Z,78.93
2023-01-17T23:09:13.695Z,53.50
2023-01-17T23:11:50.330Z,46.28
2023-01-17T23:14:23.510Z,43.17
2023-01-17T23:16:54.149Z,38.65
2023-01-17T23:19:22.506Z,35.50
2023-01-17T23:21:59.212Z,80.35
2023-01-17T23:24:27.411Z,220.15
2023-01-17T23:26:55.683Z,282.92
2023-01-17T23:29:24.156Z,226.07
2023-01-17T23:31:52.207Z,179.43
2023-01-17T23:34:21.729Z,149.55
2023-01-17T23:36:50.101Z,160.95
2023-01-17T23:39:18.292Z,134.98
2023-01-17T23:41:46.455Z,100.35
2023-01-17T23:44:14.772Z,132.98
2023-01-17T23:46:42.985Z,103.70
2023-01-17T23:49:11.162Z,72.40
2023-01-17T23:51:39.321Z,70.95
2023-01-17T23:54:07.490Z,62.10
2023-01-17T23:56:37.417Z,58.33
2023-01-17T23:59:05.689Z,47.83
